createdAt,value
2022-09-16T00:02:21.086Z,99.20
2022-09-16T00:04:47.794Z,99.10
2022-09-16T00:07:14.499Z,99.00
2022-09-16T00:09:41.726Z,99.10
2022-09-16T00:12:08.565Z,99.20
2022-09-16T00:14:35.214Z,99.20
2022-09-16T00:17:01.898Z,99.00
2022-09-16T00:19:28.687Z,99.00
2022-09-16T00:21:55.346Z,99.10
2022-09-16T00:24:22.061Z,98.80
2022-09-16T00:26:48.719Z,98.60
2022-09-16T00:29:15.483Z,98.50
2022-09-16T00:31:42.200Z,98.60
2022-09-16T00:34:08.989Z,98.30
2022-09-16T00:36:35.667Z,98.10
2022-09-16T00:39:02.322Z,98.30
2022-09-16T00:41:33.237Z,98.10
2022-09-16T00:44:06.906Z,97.70
2022-09-16T00:46:44.096Z,97.30
2022-09-16T00:49:22.199Z,98.00
2022-09-16T00:51:53.283Z,97.80
2022-09-16T00:54:20.955Z,98.20
2022-09-16T00:56:52.708Z,97.80
2022-09-16T00:59:26.517Z,97.20
2022-09-16T01:01:55.833Z,97.60
2022-09-16T01:04:35.138Z,98.30
2022-09-16T01:07:02.109Z,98.40
2022-09-16T01:09:29.727Z,98.40
2022-09-16T01:11:56.808Z,98.60
2022-09-16T01:14:44.740Z,98.40
2022-09-16T01:17:38.079Z,98.30
2022-09-16T01:21:00.336Z,98.90
2022-09-16T01:23:36.018Z,98.60
2022-09-16T01:26:32.525Z,98.60
2022-09-16T01:29:26.509Z,98.70
2022-09-16T01:32:16.463Z,98.50
2022-09-16T01:35:10.572Z,98.20
2022-09-16T01:37:52.604Z,98.60
2022-09-16T01:40:34.101Z,98.10
2022-09-16T01:43:21.334Z,98.60
2022-09-16T01:46:04.573Z,98.80
2022-09-16T01:48:53.872Z,98.70
2022-09-16T01:51:33.910Z,98.90
2022-09-16T01:54:07.001Z,98.70
2022-09-16T01:56:44.235Z,98.80
2022-09-16T01:59:21.435Z,98.60
2022-09-16T02:01:59.579Z,98.70
2022-09-16T02:04:32.943Z,99.40
2022-09-16T02:07:03.368Z,99.40
2022-09-16T02:09:34.955Z,99.10
2022-09-16T02:12:08.281Z,99.60
2022-09-16T02:14:42.555Z,99.30
2022-09-16T02:17:20.105Z,99.50
2022-09-16T02:20:08.655Z,99.40
2022-09-16T02:22:44.812Z,99.30
2022-09-16T02:25:15.794Z,99.20
2022-09-16T02:27:45.232Z,99.10
2022-09-16T02:30:20.133Z,98.90
2022-09-16T02:32:52.066Z,98.70
2022-09-16T02:35:21.645Z,98.70
2022-09-16T02:38:02.978Z,98.60
2022-09-16T02:40:42.702Z,98.80
2022-09-16T02:43:09.398Z,98.90
2022-09-16T02:46:13.928Z,98.70
2022-09-16T02:48:53.244Z,98.40
2022-09-16T02:51:32.622Z,98.50
2022-09-16T02:54:20.569Z,99.10
2022-09-16T02:56:48.544Z,99.50
2022-09-16T02:59:16.544Z,99.20
2022-09-16T03:01:46.199Z,99.60
2022-09-16T03:04:15.859Z,99.20
2022-09-16T03:06:43.379Z,99.10
2022-09-16T03:09:13.726Z,98.40
2022-09-16T03:12:02.452Z,98.30
2022-09-16T03:14:57.011Z,99.00
2022-09-16T03:17:42.572Z,98.80
2022-09-16T03:20:12.352Z,98.80
2022-09-16T03:23:16.440Z,98.80
2022-09-16T03:26:10.240Z,98.90
2022-09-16T03:28:46.096Z,99.00
2022-09-16T03:31:57.880Z,99.40
2022-09-16T03:34:32.064Z,99.00
2022-09-16T03:37:06.197Z,98.90
2022-09-16T03:39:34.401Z,98.40
2022-09-16T03:42:03.741Z,98.90
2022-09-16T03:44:35.228Z,98.80
2022-09-16T03:47:03.094Z,98.50
2022-09-16T03:49:30.501Z,98.60
2022-09-16T03:51:57.827Z,98.50
2022-09-16T03:54:24.801Z,98.50
2022-09-16T03:56:51.545Z,98.50
2022-09-16T03:59:18.643Z,98.30
2022-09-16T04:01:45.547Z,98.50
2022-09-16T04:04:12.596Z,98.30
2022-09-16T04:06:39.395Z,98.20
2022-09-16T04:09:07.965Z,98.50
2022-09-16T04:11:35.170Z,98.30
2022-09-16T04:14:01.998Z,98.30
2022-09-16T04:16:28.708Z,98.40
2022-09-16T04:18:55.338Z,98.10
2022-09-16T04:21:22.058Z,98.10
2022-09-16T04:23:49.356Z,98.10
2022-09-16T04:26:17.124Z,98.10
2022-09-16T04:28:44.282Z,98.40
2022-09-16T04:31:13.007Z,97.90
2022-09-16T04:33:40.469Z,98.60
2022-09-16T04:36:08.919Z,98.70
2022-09-16T04:38:39.799Z,98.70
2022-09-16T04:41:13.871Z,98.40
2022-09-16T04:43:41.568Z,98.10
2022-09-16T04:46:09.084Z,98.30
2022-09-16T04:48:35.929Z,98.20
2022-09-16T04:51:11.004Z,98.50
2022-09-16T04:53:39.093Z,99.00
2022-09-16T04:56:16.027Z,98.50
2022-09-16T04:58:48.144Z,98.90
2022-09-16T05:01:20.076Z,99.00
2022-09-16T05:03:49.614Z,98.80
2022-09-16T05:06:24.777Z,99.00
2022-09-16T05:08:53.428Z,98.80
2022-09-16T05:11:22.155Z,98.30
2022-09-16T05:13:49.333Z,98.00
2022-09-16T05:16:21.397Z,98.30
2022-09-16T05:18:50.209Z,98.50
2022-09-16T05:21:19.639Z,98.50
2022-09-16T05:23:47.406Z,99.90
2022-09-16T05:26:15.842Z,99.90
2022-09-16T05:28:43.307Z,99.90
2022-09-16T05:31:12.840Z,99.90
2022-09-16T05:33:42.484Z,99.90
2022-09-16T05:36:12.265Z,98.80
2022-09-16T05:38:39.049Z,98.80
2022-09-16T05:41:07.525Z,98.20
2022-09-16T05:43:35.071Z,96.50
2022-09-16T05:46:02.267Z,98.10
2022-09-16T05:48:29.743Z,97.30
2022-09-16T05:51:01.834Z,97.20
2022-09-16T05:53:30.215Z,96.90
2022-09-16T05:55:58.735Z,96.90
2022-09-16T05:58:27.719Z,97.00
2022-09-16T06:01:06.055Z,97.50
2022-09-16T06:03:34.653Z,97.30
2022-09-16T06:06:06.033Z,97.40
2022-09-16T06:08:34.979Z,97.30
2022-09-16T06:11:03.986Z,97.20
2022-09-16T06:13:31.467Z,97.10
2022-09-16T06:15:58.847Z,96.70
2022-09-16T06:18:28.090Z,96.80
2022-09-16T06:20:55.438Z,96.50
2022-09-16T06:23:22.579Z,96.50
2022-09-16T06:25:49.715Z,96.60
2022-09-16T06:28:16.363Z,96.60
2022-09-16T06:30:43.061Z,96.70
2022-09-16T06:33:11.274Z,96.60
2022-09-16T06:35:38.012Z,97.00
2022-09-16T06:38:04.690Z,96.70
2022-09-16T06:40:31.411Z,97.00
2022-09-16T06:43:00.191Z,96.60
2022-09-16T06:45:29.296Z,96.80
2022-09-16T06:47:59.995Z,96.60
2022-09-16T06:50:26.996Z,96.30
2022-09-16T06:52:53.670Z,95.90
2022-09-16T06:55:20.350Z,96.40
2022-09-16T06:57:48.381Z,96.60
2022-09-16T07:00:15.265Z,99.90
2022-09-16T07:02:42.017Z,99.90
2022-09-16T07:05:09.704Z,99.90
2022-09-16T07:07:36.673Z,99.90
2022-09-16T07:10:03.492Z,99.90
2022-09-16T07:12:30.140Z,99.90
2022-09-16T07:14:56.873Z,99.90
2022-09-16T07:17:27.149Z,99.90
2022-09-16T07:19:53.894Z,99.90
2022-09-16T07:22:20.628Z,99.90
2022-09-16T07:24:47.359Z,99.90
2022-09-16T07:27:14.572Z,99.90
2022-09-16T07:29:41.389Z,99.90
2022-09-16T07:32:08.622Z,99.60
2022-09-16T07:34:35.275Z,99.90
2022-09-16T07:37:02.008Z,99.40
2022-09-16T07:39:28.750Z,99.90
2022-09-16T07:41:55.487Z,98.40
2022-09-16T07:44:22.633Z,97.30
2022-09-16T07:46:51.340Z,97.70
2022-09-16T07:49:19.567Z,98.60
2022-09-16T07:51:47.074Z,96.30
2022-09-16T07:54:18.894Z,97.60
2022-09-16T07:56:46.080Z,98.30
2022-09-16T07:59:18.700Z,99.30
2022-09-16T08:01:46.515Z,97.80
2022-09-16T08:04:13.698Z,98.30
2022-09-16T08:06:40.720Z,98.40
2022-09-16T08:09:37.328Z,99.10
2022-09-16T08:11:55.289Z,97.70
2022-09-16T08:14:22.092Z,98.90
2022-09-16T08:16:51.499Z,99.20
2022-09-16T08:19:19.850Z,99.90
2022-09-16T08:21:46.670Z,99.90
2022-09-16T08:24:13.492Z,99.90
2022-09-16T08:26:40.518Z,99.90
2022-09-16T08:29:09.683Z,99.90
2022-09-16T08:31:37.264Z,99.90
2022-09-16T08:34:04.680Z,99.90
2022-09-16T08:36:33.490Z,99.90
2022-09-16T08:39:00.622Z,99.90
2022-09-16T08:41:27.287Z,99.90
2022-09-16T08:44:12.556Z,99.90
2022-09-16T08:46:55.918Z,99.90
2022-09-16T08:49:46.744Z,99.90
2022-09-16T08:52:35.214Z,99.90
2022-09-16T08:55:18.919Z,99.90
2022-09-16T08:57:55.812Z,99.90
2022-09-16T09:00:22.818Z,98.10
2022-09-16T09:03:20.620Z,99.70
2022-09-16T09:05:55.818Z,99.40
2022-09-16T09:08:51.522Z,98.40
2022-09-16T09:11:37.095Z,97.80
2022-09-16T09:14:33.591Z,99.80
2022-09-16T09:17:48.186Z,99.60
2022-09-16T09:20:22.144Z,99.50
2022-09-16T09:23:09.986Z,99.90
2022-09-16T09:25:58.819Z,99.90
2022-09-16T09:28:50.348Z,99.90
2022-09-16T09:31:26.110Z,99.90
2022-09-16T09:34:23.721Z,99.90
2022-09-16T09:37:31.472Z,99.90
2022-09-16T09:40:23.958Z,99.80
2022-09-16T09:43:05.298Z,99.10
2022-09-16T09:45:36.910Z,99.90
2022-09-16T09:48:11.057Z,99.10
2022-09-16T09:50:44.348Z,99.80
2022-09-16T09:53:33.282Z,99.50
2022-09-16T09:56:10.940Z,99.50
2022-09-16T09:58:46.172Z,98.90
2022-09-16T10:01:12.981Z,99.30
2022-09-16T10:03:40.601Z,98.30
2022-09-16T10:06:07.487Z,99.90
2022-09-16T10:08:47.246Z,99.60
2022-09-16T10:11:23.474Z,99.00
2022-09-16T10:13:57.990Z,98.20
2022-09-16T10:16:32.691Z,98.60
2022-09-16T10:19:18.011Z,98.50
2022-09-16T10:21:50.982Z,99.20
2022-09-16T10:24:30.354Z,99.00
2022-09-16T10:26:58.805Z,97.40
2022-09-16T10:29:26.277Z,99.30
2022-09-16T10:31:53.557Z,98.60
2022-09-16T10:34:36.572Z,98.60
2022-09-16T10:37:12.832Z,99.20
2022-09-16T10:40:07.757Z,99.80
2022-09-16T10:42:34.718Z,99.40
2022-09-16T10:45:14.930Z,98.60
2022-09-16T10:47:47.975Z,96.30
2022-09-16T10:50:19.907Z,98.50
2022-09-16T10:52:48.741Z,97.20
2022-09-16T10:55:29.502Z,99.10
2022-09-16T10:58:18.285Z,98.00
2022-09-16T11:01:20.762Z,97.70
2022-09-16T11:04:09.453Z,98.40
2022-09-16T11:07:06.665Z,97.70
2022-09-16T11:09:58.792Z,96.80
2022-09-16T11:12:56.819Z,98.10
2022-09-16T11:15:39.456Z,98.20
2022-09-16T11:18:12.246Z,98.20
2022-09-16T11:20:54.398Z,95.90
2022-09-16T11:23:50.499Z,97.70
2022-09-16T11:26:52.592Z,97.90
2022-09-16T11:29:31.475Z,98.00
2022-09-16T11:32:20.240Z,98.20
2022-09-16T11:35:22.895Z,98.10
2022-09-16T11:38:00.860Z,98.10
2022-09-16T11:40:27.733Z,98.90
2022-09-16T11:43:29.694Z,98.80
2022-09-16T11:46:28.898Z,97.50
2022-09-16T11:48:59.068Z,99.10
2022-09-16T11:51:34.669Z,98.10
2022-09-16T11:54:33.712Z,97.20
2022-09-16T11:57:04.841Z,98.00
2022-09-16T11:59:54.875Z,97.30
2022-09-16T12:03:03.960Z,98.20
2022-09-16T12:05:34.063Z,98.60
2022-09-16T12:08:13.048Z,96.90
2022-09-16T12:10:48.605Z,98.30
2022-09-16T12:13:26.175Z,97.50
2022-09-16T12:16:03.888Z,97.10
2022-09-16T12:18:43.037Z,98.20
2022-09-16T12:21:19.735Z,98.10
2022-09-16T12:23:51.652Z,97.90
2022-09-16T12:26:21.985Z,97.80
2022-09-16T12:28:48.740Z,97.80
2022-09-16T12:31:39.174Z,97.20
2022-09-16T12:34:17.395Z,96.60
2022-09-16T12:36:50.933Z,95.50
2022-09-16T12:39:17.728Z,98.30
2022-09-16T12:42:05.596Z,99.10
2022-09-16T12:45:04.079Z,97.90
2022-09-16T12:48:05.757Z,97.00
2022-09-16T12:50:54.149Z,97.00
2022-09-16T12:53:46.568Z,97.20
2022-09-16T12:56:32.249Z,97.80
2022-09-16T12:59:07.036Z,98.00
2022-09-16T13:01:39.138Z,98.00
2022-09-16T13:04:41.534Z,97.40
2022-09-16T13:07:24.809Z,97.70
2022-09-16T13:10:05.666Z,97.30
2022-09-16T13:12:42.787Z,97.60
2022-09-16T13:15:24.613Z,97.60
2022-09-16T13:17:53.364Z,97.30
2022-09-16T13:20:33.460Z,97.50
2022-09-16T13:23:17.980Z,97.60
2022-09-16T13:26:00.104Z,97.60
2022-09-16T13:28:45.972Z,97.90
2022-09-16T13:31:13.028Z,97.30
2022-09-16T13:33:40.956Z,97.90
2022-09-16T13:36:14.800Z,97.70
2022-09-16T13:38:53.908Z,97.50
2022-09-16T13:41:42.600Z,97.40
2022-09-16T13:44:28.079Z,97.60
2022-09-16T13:46:54.768Z,97.40
2022-09-16T13:49:25.569Z,97.50
2022-09-16T13:51:52.880Z,97.60
2022-09-16T13:54:24.871Z,97.20
2022-09-16T13:57:18.340Z,98.30
2022-09-16T14:00:26.266Z,97.90
2022-09-16T14:02:55.826Z,96.00
2022-09-16T14:05:47.164Z,95.20
2022-09-16T14:08:13.869Z,97.10
2022-09-16T14:11:17.358Z,96.40
2022-09-16T14:13:50.746Z,94.40
2022-09-16T14:16:24.766Z,94.00
2022-09-16T14:19:04.260Z,93.90
2022-09-16T14:21:31.507Z,95.30
2022-09-16T14:24:19.912Z,95.00
2022-09-16T14:26:54.773Z,95.30
2022-09-16T14:29:22.473Z,95.00
2022-09-16T14:31:51.079Z,95.70
2022-09-16T14:34:30.848Z,95.50
2022-09-16T14:36:58.016Z,94.60
2022-09-16T14:39:26.789Z,95.70
2022-09-16T14:42:02.661Z,95.80
2022-09-16T14:44:32.436Z,94.10
2022-09-16T14:47:29.358Z,94.00
2022-09-16T14:50:19.496Z,95.70
2022-09-16T14:52:58.158Z,97.40
2022-09-16T14:55:31.264Z,93.30
2022-09-16T14:57:59.172Z,95.50
2022-09-16T15:00:55.944Z,94.20
2022-09-16T15:03:31.837Z,93.00
2022-09-16T15:06:05.026Z,91.60
2022-09-16T15:08:33.484Z,90.50
2022-09-16T15:11:07.705Z,91.80
2022-09-16T15:13:39.421Z,90.50
2022-09-16T15:16:11.980Z,91.80
2022-09-16T15:18:59.915Z,92.40
2022-09-16T15:21:44.987Z,92.70
2022-09-16T15:24:21.602Z,92.20
2022-09-16T15:26:49.751Z,93.30
2022-09-16T15:29:20.600Z,93.10
2022-09-16T15:31:48.010Z,94.60
2022-09-16T15:34:23.511Z,96.30
2022-09-16T15:36:55.143Z,90.80
2022-09-16T15:39:28.322Z,92.70
2022-09-16T15:42:20.940Z,93.70
2022-09-16T15:44:56.516Z,95.30
2022-09-16T15:47:30.188Z,93.20
2022-09-16T15:50:07.514Z,92.90
2022-09-16T15:52:51.333Z,92.50
2022-09-16T15:55:33.016Z,92.40
2022-09-16T15:58:31.673Z,94.10
2022-09-16T16:01:01.175Z,93.80
2022-09-16T16:03:32.214Z,93.30
2022-09-16T16:05:59.094Z,94.30
2022-09-16T16:08:48.925Z,94.60
2022-09-16T16:11:18.820Z,93.90
2022-09-16T16:13:46.295Z,93.00
2022-09-16T16:16:14.821Z,95.50
2022-09-16T16:18:43.865Z,93.50
2022-09-16T16:21:17.040Z,93.10
2022-09-16T16:23:43.953Z,92.10
2022-09-16T16:26:11.562Z,92.40
2022-09-16T16:28:38.791Z,91.50
2022-09-16T16:31:14.543Z,91.60
2022-09-16T16:33:46.227Z,94.80
2022-09-16T16:36:14.558Z,95.60
2022-09-16T16:38:41.849Z,92.30
2022-09-16T16:41:09.091Z,94.10
2022-09-16T16:43:35.719Z,94.00
2022-09-16T16:46:04.046Z,97.40
2022-09-16T16:48:31.265Z,94.90
2022-09-16T16:51:04.711Z,94.90
2022-09-16T16:53:32.074Z,97.30
2022-09-16T16:56:14.452Z,94.80
2022-09-16T16:58:42.985Z,95.90
2022-09-16T17:01:18.510Z,94.70
2022-09-16T17:03:49.521Z,95.40
2022-09-16T17:06:17.552Z,95.90
2022-09-16T17:08:44.360Z,96.60
2022-09-16T17:11:19.968Z,96.40
2022-09-16T17:13:49.398Z,96.50
2022-09-16T17:16:19.714Z,94.00
2022-09-16T17:18:47.031Z,95.30
2022-09-16T17:21:18.456Z,93.70
2022-09-16T17:23:45.382Z,94.40
2022-09-16T17:26:13.068Z,94.00
2022-09-16T17:28:41.151Z,95.00
2022-09-16T17:31:17.405Z,96.30
2022-09-16T17:33:44.527Z,95.60
2022-09-16T17:36:13.844Z,95.60
2022-09-16T17:38:40.614Z,95.60
2022-09-16T17:41:08.760Z,96.30
2022-09-16T17:43:36.384Z,95.70
2022-09-16T17:46:11.369Z,96.40
2022-09-16T17:48:38.844Z,95.80
2022-09-16T17:51:06.114Z,95.50
2022-09-16T17:53:33.735Z,96.20
2022-09-16T17:56:11.911Z,98.10
2022-09-16T17:58:40.717Z,96.20
2022-09-16T18:01:16.333Z,96.40
2022-09-16T18:03:44.725Z,96.50
2022-09-16T18:06:13.472Z,97.20
2022-09-16T18:08:41.001Z,97.80
2022-09-16T18:11:09.218Z,97.60
2022-09-16T18:13:36.969Z,97.20
2022-09-16T18:16:12.204Z,97.50
2022-09-16T18:18:41.180Z,96.70
2022-09-16T18:21:10.372Z,97.40
2022-09-16T18:23:37.353Z,97.80
2022-09-16T18:26:06.384Z,99.90
2022-09-16T18:29:05.191Z,96.20
2022-09-16T18:31:26.804Z,97.70
2022-09-16T18:33:55.028Z,95.90
2022-09-16T18:36:25.350Z,96.20
2022-09-16T18:38:53.631Z,96.90
2022-09-16T18:41:25.183Z,97.10
2022-09-16T18:43:55.895Z,96.90
2022-09-16T18:46:31.588Z,96.20
2022-09-16T18:48:59.174Z,97.20
2022-09-16T18:51:27.373Z,97.30
2022-09-16T18:53:57.819Z,97.20
2022-09-16T18:56:25.470Z,97.40
2022-09-16T18:59:17.107Z,97.60
2022-09-16T19:01:41.519Z,96.80
2022-09-16T19:04:11.016Z,97.30
2022-09-16T19:06:40.871Z,96.80
2022-09-16T19:09:11.238Z,96.90
2022-09-16T19:11:38.649Z,97.60
2022-09-16T19:14:09.388Z,97.70
2022-09-16T19:16:37.097Z,98.20
2022-09-16T19:19:05.497Z,99.50
2022-09-16T19:21:32.480Z,97.20
2022-09-16T19:24:01.680Z,97.00
2022-09-16T19:26:31.220Z,97.30
2022-09-16T19:29:01.192Z,97.20
2022-09-16T19:31:29.235Z,98.00
2022-09-16T19:33:56.919Z,98.50
2022-09-16T19:36:26.492Z,98.60
2022-09-16T19:38:53.588Z,98.90
2022-09-16T19:41:23.263Z,99.10
2022-09-16T19:44:00.491Z,98.20
2022-09-16T19:46:29.079Z,99.90
2022-09-16T19:48:56.543Z,98.80
2022-09-16T19:51:24.563Z,99.30
2022-09-16T19:53:52.825Z,99.70
2022-09-16T19:56:25.288Z,99.90
2022-09-16T19:58:53.147Z,99.30
2022-09-16T20:01:24.629Z,99.70
2022-09-16T20:03:52.166Z,99.90
2022-09-16T20:06:21.308Z,99.20
2022-09-16T20:08:52.571Z,99.90
2022-09-16T20:11:21.568Z,99.90
2022-09-16T20:14:03.070Z,99.90
2022-09-16T20:16:38.097Z,99.80
2022-09-16T20:19:07.215Z,99.90
2022-09-16T20:21:35.102Z,99.90
2022-09-16T20:24:15.854Z,99.90
2022-09-16T20:26:42.535Z,99.90
2022-09-16T20:29:09.219Z,99.90
2022-09-16T20:31:36.844Z,99.90
2022-09-16T20:34:04.712Z,99.90
2022-09-16T20:36:35.625Z,99.90
2022-09-16T20:39:02.587Z,99.70
2022-09-16T20:41:30.935Z,99.90
2022-09-16T20:43:59.373Z,99.90
2022-09-16T20:46:34.772Z,99.90
2022-09-16T20:49:03.979Z,99.90
2022-09-16T20:51:33.446Z,99.90
2022-09-16T20:54:07.316Z,99.90
2022-09-16T20:56:38.242Z,99.90
2022-09-16T20:59:07.606Z,99.90
2022-09-16T21:01:35.555Z,99.90
2022-09-16T21:04:05.192Z,99.90
2022-09-16T21:06:34.700Z,99.90
2022-09-16T21:09:04.562Z,99.90
2022-09-16T21:11:32.047Z,99.90
2022-09-16T21:14:01.133Z,99.90
2022-09-16T21:16:30.168Z,99.90
2022-09-16T21:18:58.213Z,98.80
2022-09-16T21:21:26.253Z,99.90
2022-09-16T21:23:55.789Z,99.90
2022-09-16T21:26:33.839Z,99.90
2022-09-16T21:29:02.913Z,99.90
2022-09-16T21:31:33.561Z,99.90
2022-09-16T21:34:03.050Z,99.90
2022-09-16T21:36:31.195Z,98.00
2022-09-16T21:38:59.180Z,99.10
2022-09-16T21:41:26.562Z,99.90
2022-09-16T21:43:58.186Z,99.90
2022-09-16T21:46:26.689Z,99.90
2022-09-16T21:48:57.497Z,99.90
2022-09-16T21:51:24.241Z,99.90
2022-09-16T21:53:50.921Z,99.90
2022-09-16T21:56:19.959Z,99.90
2022-09-16T21:58:48.013Z,99.90
2022-09-16T22:01:21.969Z,99.90
2022-09-16T22:03:55.078Z,99.90
2022-09-16T22:06:22.859Z,99.90
2022-09-16T22:08:50.181Z,99.90
2022-09-16T22:11:20.240Z,99.90
2022-09-16T22:13:49.608Z,99.90
2022-09-16T22:16:18.990Z,99.90
2022-09-16T22:18:45.735Z,99.90
2022-09-16T22:21:14.970Z,99.90
2022-09-16T22:23:41.835Z,99.50
2022-09-16T22:26:13.797Z,99.90
2022-09-16T22:28:42.495Z,99.90
2022-09-16T22:31:23.193Z,99.90
2022-09-16T22:33:51.637Z,99.30
2022-09-16T22:36:25.164Z,99.90
2022-09-16T22:38:56.734Z,99.90
2022-09-16T22:41:25.027Z,99.90
2022-09-16T22:43:53.398Z,99.90
2022-09-16T22:46:31.512Z,99.90
2022-09-16T22:48:59.663Z,99.90
2022-09-16T22:51:27.830Z,99.90
2022-09-16T22:53:54.985Z,99.90
2022-09-16T22:56:25.590Z,98.60
2022-09-16T22:58:53.834Z,99.90
2022-09-16T23:01:23.391Z,99.90
2022-09-16T23:03:54.187Z,99.90
2022-09-16T23:06:21.388Z,97.90
2022-09-16T23:08:48.285Z,99.90
2022-09-16T23:11:18.321Z,99.90
2022-09-16T23:13:48.174Z,99.90
2022-09-16T23:16:18.099Z,98.60
2022-09-16T23:18:47.498Z,99.90
2022-09-16T23:21:16.870Z,99.90
2022-09-16T23:23:46.096Z,99.30
2022-09-16T23:26:15.841Z,99.90
2022-09-16T23:28:42.913Z,99.90
2022-09-16T23:31:11.310Z,99.90
2022-09-16T23:33:38.381Z,99.90
2022-09-16T23:36:08.241Z,99.90
2022-09-16T23:38:36.680Z,99.90
2022-09-16T23:41:10.755Z,99.90
2022-09-16T23:43:41.650Z,98.00
2022-09-16T23:46:10.365Z,99.90
2022-09-16T23:48:37.900Z,98.60
2022-09-16T23:51:05.983Z,97.80
2022-09-16T23:53:33.451Z,99.70
2022-09-16T23:56:05.708Z,99.90
2022-09-16T23:58:32.360Z,99.90
